createdAt,value
2023-03-13T00:01:02.803Z,100195.78
2023-03-13T00:03:29.663Z,100196.03
2023-03-13T00:05:58.025Z,100189.06
2023-03-13T00:08:33.990Z,100193.44
2023-03-13T00:11:08.108Z,100199.00
2023-03-13T00:13:35.123Z,100184.16
2023-03-13T00:16:29.115Z,100184.34
2023-03-13T00:18:57.581Z,100179.38
2023-03-13T00:21:26.761Z,100176.91
2023-03-13T00:23:54.228Z,100169.94
2023-03-13T00:26:23.727Z,100169.59
2023-03-13T00:28:51.666Z,100166.72
2023-03-13T00:31:21.735Z,100150.50
2023-03-13T00:33:50.494Z,100151.19
2023-03-13T00:36:21.560Z,100146.56
2023-03-13T00:38:48.613Z,100136.78
2023-03-13T00:41:18.252Z,100133.19
2023-03-13T00:43:46.096Z,100134.72
2023-03-13T00:46:17.265Z,100114.16
2023-03-13T00:48:44.253Z,100118.50
2023-03-13T00:51:11.580Z,100111.81
2023-03-13T00:53:38.676Z,100124.84
2023-03-13T00:56:07.288Z,100106.78
2023-03-13T00:58:36.904Z,100117.91
2023-03-13T01:01:24.434Z,100113.22
2023-03-13T01:03:57.562Z,100105.44
2023-03-13T01:06:27.856Z,100114.94
2023-03-13T01:08:54.976Z,100110.88
2023-03-13T01:11:25.611Z,100105.19
2023-03-13T01:13:57.872Z,100098.16
2023-03-13T01:16:26.461Z,100092.81
2023-03-13T01:18:55.903Z,100090.38
2023-03-13T01:21:25.447Z,100077.19
2023-03-13T01:23:53.532Z,100073.59
2023-03-13T01:26:21.679Z,100069.72
2023-03-13T01:28:48.923Z,100060.44
2023-03-13T01:31:19.720Z,100057.69
2023-03-13T01:33:49.099Z,100047.38
2023-03-13T01:36:16.692Z,100028.94
2023-03-13T01:38:43.698Z,100027.19
2023-03-13T01:41:13.171Z,100014.50
2023-03-13T01:43:40.680Z,100016.44
2023-03-13T01:46:07.640Z,100005.03
2023-03-13T01:49:01.361Z,100002.69
2023-03-13T01:51:47.106Z,99997.81
2023-03-13T01:54:26.619Z,99989.69
2023-03-13T01:57:09.256Z,99979.88
2023-03-13T01:59:42.888Z,99975.34
2023-03-13T02:02:09.948Z,99972.03
2023-03-13T02:04:40.289Z,99961.28
2023-03-13T02:07:14.536Z,99953.13
2023-03-13T02:09:44.123Z,99956.25
2023-03-13T02:12:15.673Z,99947.59
2023-03-13T02:14:47.885Z,99939.59
2023-03-13T02:17:15.809Z,99886.72
2023-03-13T02:19:52.161Z,99931.59
2023-03-13T02:22:54.886Z,99925.44
2023-03-13T02:25:24.735Z,99921.81
2023-03-13T02:27:56.613Z,99918.72
2023-03-13T02:30:24.089Z,99910.56
2023-03-13T02:32:53.305Z,99907.66
2023-03-13T02:35:27.793Z,99899.19
2023-03-13T02:38:00.175Z,99888.59
2023-03-13T02:40:34.171Z,99884.72
2023-03-13T02:43:05.264Z,99880.00
2023-03-13T02:45:32.214Z,99873.94
2023-03-13T02:47:59.249Z,99866.97
2023-03-13T02:50:26.321Z,99868.09
2023-03-13T02:53:01.067Z,99854.09
2023-03-13T02:55:48.060Z,99848.38
2023-03-13T02:58:14.914Z,99843.47
2023-03-13T03:00:41.734Z,99844.16
2023-03-13T03:03:08.741Z,99840.25
2023-03-13T03:05:35.788Z,99832.25
2023-03-13T03:08:02.597Z,99829.34
2023-03-13T03:10:29.725Z,99823.81
2023-03-13T03:12:56.769Z,99820.22
2023-03-13T03:15:23.969Z,99814.84
2023-03-13T03:17:53.459Z,99770.66
2023-03-13T03:20:20.427Z,99815.66
2023-03-13T03:22:47.457Z,99804.25
2023-03-13T03:25:14.165Z,99794.78
2023-03-13T03:27:41.050Z,99796.13
2023-03-13T03:30:08.747Z,99790.25
2023-03-13T03:32:35.925Z,99783.22
2023-03-13T03:35:02.981Z,99775.91
2023-03-13T03:37:29.909Z,99768.91
2023-03-13T03:39:56.770Z,99764.50
2023-03-13T03:42:23.787Z,99754.25
2023-03-13T03:44:50.630Z,99764.19
2023-03-13T03:47:18.083Z,99764.66
2023-03-13T03:49:44.970Z,99756.53
2023-03-13T03:52:11.797Z,99746.91
2023-03-13T03:54:38.741Z,99743.00
2023-03-13T03:57:05.549Z,99741.53
2023-03-13T03:59:32.776Z,99727.38
2023-03-13T04:01:59.606Z,99729.81
2023-03-13T04:04:26.900Z,99718.25
2023-03-13T04:06:54.432Z,99704.88
2023-03-13T04:09:21.154Z,99700.47
2023-03-13T04:11:48.156Z,99693.31
2023-03-13T04:14:15.312Z,99668.88
2023-03-13T04:16:42.181Z,99666.28
2023-03-13T04:19:09.325Z,99665.47
2023-03-13T04:21:36.741Z,99655.84
2023-03-13T04:24:03.700Z,99649.66
2023-03-13T04:26:30.714Z,99639.06
2023-03-13T04:28:57.623Z,99619.66
2023-03-13T04:31:24.575Z,99620.94
2023-03-13T04:33:51.477Z,99613.78
2023-03-13T04:36:18.201Z,99613.78
2023-03-13T04:38:45.241Z,99582.75
2023-03-13T04:41:13.190Z,99607.13
2023-03-13T04:43:40.186Z,99586.28
2023-03-13T04:46:07.145Z,99590.34
2023-03-13T04:48:34.161Z,99587.91
2023-03-13T04:51:01.432Z,99572.09
2023-03-13T04:53:28.690Z,99520.38
2023-03-13T04:55:55.563Z,99546.16
2023-03-13T04:58:22.512Z,99532.19
2023-03-13T05:00:49.468Z,99528.41
2023-03-13T05:03:16.352Z,99507.88
2023-03-13T05:05:43.240Z,99506.91
2023-03-13T05:08:11.216Z,99500.06
2023-03-13T05:10:38.342Z,99493.19
2023-03-13T05:13:05.188Z,99480.13
2023-03-13T05:15:32.208Z,99474.59
2023-03-13T05:17:59.159Z,99481.41
2023-03-13T05:20:26.253Z,99474.72
2023-03-13T05:22:53.360Z,99468.50
2023-03-13T05:25:20.255Z,99467.97
2023-03-13T05:27:47.245Z,99462.66
2023-03-13T05:30:14.252Z,99455.28
2023-03-13T05:32:42.323Z,99456.78
2023-03-13T05:35:09.460Z,99445.06
2023-03-13T05:37:36.410Z,99441.81
2023-03-13T05:40:04.590Z,99442.44
2023-03-13T05:42:31.486Z,99432.50
2023-03-13T05:44:58.335Z,99404.53
2023-03-13T05:47:25.262Z,99427.22
2023-03-13T05:49:52.252Z,99403.09
2023-03-13T05:52:19.353Z,99403.09
2023-03-13T05:54:46.359Z,99398.16
2023-03-13T05:57:13.511Z,99357.69
2023-03-13T05:59:40.782Z,99390.94
2023-03-13T06:02:07.714Z,99388.78
2023-03-13T06:04:35.844Z,99382.28
2023-03-13T06:07:02.922Z,99386.47
2023-03-13T06:09:29.777Z,99388.91
2023-03-13T06:11:56.720Z,99374.84
2023-03-13T06:14:23.896Z,99373.34
2023-03-13T06:16:50.891Z,99369.09
2023-03-13T06:19:20.820Z,99373.75
2023-03-13T06:21:47.680Z,99346.13
2023-03-13T06:24:14.560Z,99360.81
2023-03-13T06:26:41.543Z,99365.91
2023-03-13T06:29:08.401Z,99364.91
2023-03-13T06:31:35.404Z,99358.09
2023-03-13T06:34:02.646Z,99354.41
2023-03-13T06:36:29.658Z,99339.53
2023-03-13T06:38:56.634Z,99335.59
2023-03-13T06:41:23.700Z,99332.72
2023-03-13T06:43:50.670Z,99319.63
2023-03-13T06:46:23.171Z,99303.47
2023-03-13T06:48:50.989Z,99324.50
2023-03-13T06:51:21.385Z,99316.28
2023-03-13T06:53:51.587Z,99307.63
2023-03-13T06:56:18.999Z,99293.03
2023-03-13T06:58:49.888Z,99284.25
2023-03-13T07:01:24.367Z,99301.28
2023-03-13T07:03:51.616Z,99314.69
2023-03-13T07:06:18.958Z,99301.84
2023-03-13T07:08:46.327Z,99262.63
2023-03-13T07:11:16.564Z,99288.06
2023-03-13T07:13:43.561Z,99277.44
2023-03-13T07:16:13.335Z,99279.97
2023-03-13T07:18:47.259Z,99273.97
2023-03-13T07:21:15.103Z,99269.22
2023-03-13T07:23:42.095Z,99271.84
2023-03-13T07:26:13.970Z,99270.00
2023-03-13T07:28:41.120Z,99261.91
2023-03-13T07:31:17.031Z,99263.50
2023-03-13T07:33:45.158Z,99256.53
2023-03-13T07:36:14.103Z,99266.50
2023-03-13T07:38:43.274Z,99260.22
2023-03-13T07:41:19.777Z,99248.06
2023-03-13T07:43:46.957Z,99248.97
2023-03-13T07:46:18.862Z,99248.00
2023-03-13T07:48:46.873Z,99248.56
2023-03-13T07:51:23.269Z,99244.38
2023-03-13T07:53:52.893Z,99241.75
2023-03-13T07:56:24.017Z,99240.25
2023-03-13T07:58:52.148Z,99248.31
2023-03-13T08:01:26.836Z,99232.00
2023-03-13T08:03:56.168Z,99236.72
2023-03-13T08:06:29.814Z,99213.81
2023-03-13T08:08:58.990Z,99236.34
2023-03-13T08:11:28.578Z,99229.00
2023-03-13T08:13:57.356Z,99211.59
2023-03-13T08:16:28.027Z,99225.41
2023-03-13T08:18:57.235Z,99217.34
2023-03-13T08:21:35.652Z,99213.75
2023-03-13T08:24:07.136Z,99214.91
2023-03-13T08:26:36.686Z,99223.25
2023-03-13T08:29:07.364Z,99221.66
2023-03-13T08:31:42.486Z,99224.47
2023-03-13T08:34:12.745Z,99211.44
2023-03-13T08:36:40.000Z,99226.44
2023-03-13T08:39:19.029Z,99217.00
2023-03-13T08:41:46.367Z,99212.25
2023-03-13T08:44:18.662Z,99216.00
2023-03-13T08:46:45.848Z,99215.19
2023-03-13T08:49:13.654Z,99210.44
2023-03-13T08:51:41.036Z,99196.03
2023-03-13T08:54:08.127Z,99203.59
2023-03-13T08:56:35.374Z,99193.59
2023-03-13T08:59:04.518Z,99196.47
2023-03-13T09:01:36.239Z,99192.88
2023-03-13T09:04:05.309Z,99194.88
2023-03-13T09:06:37.446Z,99189.72
2023-03-13T09:09:06.976Z,99193.41
2023-03-13T09:11:34.779Z,99170.53
2023-03-13T09:14:03.019Z,99184.25
2023-03-13T09:16:32.929Z,99170.75
2023-03-13T09:19:00.423Z,99192.16
2023-03-13T09:21:35.901Z,99199.34
2023-03-13T09:24:04.197Z,99179.53
2023-03-13T09:26:31.235Z,99187.09
2023-03-13T09:28:58.991Z,99192.34
2023-03-13T09:31:35.591Z,99186.91
2023-03-13T09:34:02.909Z,99191.41
2023-03-13T09:36:30.221Z,99188.81
2023-03-13T09:38:59.505Z,99190.25
2023-03-13T09:41:31.492Z,99195.97
2023-03-13T09:44:18.446Z,99190.69
2023-03-13T09:47:12.664Z,99201.31
2023-03-13T09:49:47.375Z,99205.09
2023-03-13T09:52:27.685Z,99194.75
2023-03-13T09:55:03.378Z,99191.81
2023-03-13T09:57:55.997Z,99194.03
2023-03-13T10:00:25.526Z,99193.59
2023-03-13T10:03:21.122Z,99204.88
2023-03-13T10:05:55.608Z,99177.91
2023-03-13T10:08:25.154Z,99213.38
2023-03-13T10:11:07.901Z,99209.31
2023-03-13T10:13:44.028Z,99193.63
2023-03-13T10:16:53.579Z,99225.22
2023-03-13T10:19:31.525Z,99239.13
2023-03-13T10:22:02.506Z,99238.81
2023-03-13T10:24:42.717Z,99228.72
2023-03-13T10:27:11.566Z,99220.78
2023-03-13T10:29:38.935Z,99210.94
2023-03-13T10:32:08.588Z,99188.63
2023-03-13T10:34:58.799Z,99193.94
2023-03-13T10:37:40.428Z,99181.97
2023-03-13T10:40:26.848Z,99181.47
2023-03-13T10:43:01.206Z,99194.72
2023-03-13T10:45:33.151Z,99175.81
2023-03-13T10:48:27.524Z,99186.84
2023-03-13T10:51:01.231Z,99182.72
2023-03-13T10:53:29.226Z,99189.09
2023-03-13T10:56:18.845Z,99202.22
2023-03-13T10:58:50.170Z,99206.00
2023-03-13T11:01:29.844Z,99211.22
2023-03-13T11:04:03.122Z,99203.06
2023-03-13T11:06:31.388Z,99187.41
2023-03-13T11:09:03.636Z,99167.56
2023-03-13T11:11:31.297Z,99159.41
2023-03-13T11:14:25.430Z,99152.97
2023-03-13T11:16:59.389Z,99141.66
2023-03-13T11:19:30.184Z,99156.72
2023-03-13T11:22:15.363Z,99150.28
2023-03-13T11:25:04.857Z,99156.19
2023-03-13T11:28:07.319Z,99152.38
2023-03-13T11:30:49.260Z,99138.31
2023-03-13T11:33:28.841Z,99140.97
2023-03-13T11:36:10.516Z,99128.16
2023-03-13T11:38:44.706Z,99104.28
2023-03-13T11:41:41.837Z,99107.00
2023-03-13T11:44:27.085Z,99098.78
2023-03-13T11:47:14.025Z,99098.28
2023-03-13T11:50:08.563Z,99102.41
2023-03-13T11:52:47.569Z,99111.91
2023-03-13T11:55:26.875Z,99104.97
2023-03-13T11:58:09.630Z,99109.75
2023-03-13T12:00:58.176Z,99096.44
2023-03-13T12:03:37.373Z,99099.72
2023-03-13T12:06:15.926Z,99103.84
2023-03-13T12:08:56.206Z,99103.69
2023-03-13T12:11:28.882Z,99100.78
2023-03-13T12:14:05.606Z,99112.47
2023-03-13T12:16:57.411Z,99098.88
2023-03-13T12:19:46.074Z,99092.22
2023-03-13T12:22:25.087Z,99103.00
2023-03-13T12:25:00.152Z,99092.38
2023-03-13T12:27:33.806Z,99098.31
2023-03-13T12:30:06.963Z,99112.66
2023-03-13T12:32:33.831Z,99112.00
2023-03-13T12:35:32.249Z,99090.53
2023-03-13T12:38:14.516Z,99114.53
2023-03-13T12:41:15.108Z,99123.38
2023-03-13T12:43:57.215Z,99099.00
2023-03-13T12:47:12.807Z,99090.22
2023-03-13T12:50:04.802Z,99099.59
2023-03-13T12:52:31.828Z,99090.88
2023-03-13T12:55:14.603Z,99086.38
2023-03-13T12:58:06.799Z,99076.88
2023-03-13T13:00:40.243Z,99074.81
2023-03-13T13:03:43.922Z,99054.66
2023-03-13T13:06:14.390Z,99081.22
2023-03-13T13:08:53.034Z,99068.69
2023-03-13T13:11:41.290Z,99052.41
2023-03-13T13:14:17.622Z,99048.47
2023-03-13T13:16:48.713Z,99045.28
2023-03-13T13:19:24.714Z,99054.28
2023-03-13T13:22:29.009Z,99038.72
2023-03-13T13:25:00.782Z,99020.72
2023-03-13T13:27:50.931Z,99024.81
2023-03-13T13:30:18.004Z,99012.94
2023-03-13T13:32:50.090Z,99017.34
2023-03-13T13:35:24.738Z,98987.66
2023-03-13T13:37:51.942Z,99001.75
2023-03-13T13:40:26.856Z,98997.00
2023-03-13T13:43:02.119Z,98990.81
2023-03-13T13:45:35.666Z,98986.56
2023-03-13T13:48:26.754Z,98981.63
2023-03-13T13:51:13.290Z,98978.56
2023-03-13T13:53:47.997Z,98990.59
2023-03-13T13:56:39.551Z,98972.31
2023-03-13T13:59:52.626Z,98975.00
2023-03-13T14:03:00.391Z,98966.31
2023-03-13T14:05:30.866Z,98972.00
2023-03-13T14:08:16.463Z,98954.38
2023-03-13T14:10:47.107Z,98958.31
2023-03-13T14:13:22.156Z,98951.78
2023-03-13T14:15:53.055Z,98963.16
2023-03-13T14:18:25.940Z,98951.88
2023-03-13T14:20:54.491Z,98948.63
2023-03-13T14:23:42.396Z,98951.34
2023-03-13T14:26:18.171Z,98954.25
2023-03-13T14:29:07.378Z,98938.50
2023-03-13T14:31:37.650Z,98931.38
2023-03-13T14:34:07.817Z,98941.88
2023-03-13T14:37:01.600Z,98908.56
2023-03-13T14:39:34.439Z,98942.66
2023-03-13T14:42:05.776Z,98934.03
2023-03-13T14:44:41.795Z,98931.72
2023-03-13T14:47:31.022Z,98914.06
2023-03-13T14:50:04.566Z,98935.44
2023-03-13T14:52:34.087Z,98926.25
2023-03-13T14:55:05.344Z,98918.06
2023-03-13T14:57:33.369Z,98927.56
2023-03-13T15:00:28.332Z,98915.38
2023-03-13T15:03:17.205Z,98896.38
2023-03-13T15:05:46.180Z,98909.97
2023-03-13T15:08:23.159Z,98914.09
2023-03-13T15:10:51.090Z,98906.44
2023-03-13T15:13:34.385Z,98889.66
2023-03-13T15:16:04.291Z,98892.34
2023-03-13T15:18:34.625Z,98890.94
2023-03-13T15:21:13.512Z,98892.56
2023-03-13T15:23:49.381Z,98910.94
2023-03-13T15:26:16.362Z,98882.63
2023-03-13T15:28:43.516Z,98882.25
2023-03-13T15:31:13.266Z,98889.88
2023-03-13T15:33:40.735Z,98884.69
2023-03-13T15:36:08.119Z,98883.88
2023-03-13T15:38:35.543Z,98875.44
2023-03-13T15:41:02.678Z,98884.66
2023-03-13T15:43:29.740Z,98875.38
2023-03-13T15:45:56.650Z,98879.31
2023-03-13T15:48:29.676Z,98880.25
2023-03-13T15:51:02.628Z,98869.13
2023-03-13T15:53:34.784Z,98873.97
2023-03-13T15:56:03.552Z,98868.69
2023-03-13T15:58:30.752Z,98854.63
2023-03-13T16:00:58.661Z,98865.94
2023-03-13T16:03:27.437Z,98871.09
2023-03-13T16:05:56.255Z,98832.66
2023-03-13T16:08:37.068Z,98854.66
2023-03-13T16:11:04.357Z,98861.13
2023-03-13T16:13:31.721Z,98858.34
2023-03-13T16:15:58.820Z,98860.72
2023-03-13T16:18:26.225Z,98849.47
2023-03-13T16:20:53.967Z,98850.31
2023-03-13T16:23:20.884Z,98851.56
2023-03-13T16:25:48.762Z,98861.56
2023-03-13T16:28:16.556Z,98855.63
2023-03-13T16:30:47.890Z,98851.59
2023-03-13T16:33:17.322Z,98849.19
2023-03-13T16:35:47.371Z,98843.56
2023-03-13T16:38:14.387Z,98825.56
2023-03-13T16:40:41.489Z,98850.38
2023-03-13T16:43:15.788Z,98837.16
2023-03-13T16:45:42.796Z,98858.38
2023-03-13T16:48:17.713Z,98846.72
2023-03-13T16:50:46.910Z,98858.72
2023-03-13T16:53:15.017Z,98859.88
2023-03-13T16:55:42.126Z,98859.09
2023-03-13T16:58:12.798Z,98860.28
2023-03-13T17:00:39.917Z,98861.91
2023-03-13T17:03:06.847Z,98858.72
2023-03-13T17:05:33.980Z,98848.31
2023-03-13T17:08:00.862Z,98846.34
2023-03-13T17:10:30.412Z,98861.53
2023-03-13T17:12:59.678Z,98839.88
2023-03-13T17:15:28.803Z,98840.66
2023-03-13T17:17:56.577Z,98853.81
2023-03-13T17:20:29.826Z,98854.22
2023-03-13T17:22:57.112Z,98862.66
2023-03-13T17:25:25.249Z,98849.47
2023-03-13T17:27:52.711Z,98860.28
2023-03-13T17:30:19.688Z,98867.88
2023-03-13T17:32:48.284Z,98866.69
2023-03-13T17:35:15.608Z,98866.72
2023-03-13T17:37:44.688Z,98877.53
2023-03-13T17:40:19.624Z,98887.97
2023-03-13T17:42:48.287Z,98893.16
2023-03-13T17:45:20.490Z,98891.16
2023-03-13T17:47:49.451Z,98911.19
2023-03-13T17:50:27.407Z,98914.41
2023-03-13T17:52:54.876Z,98900.34
2023-03-13T17:55:22.044Z,98905.91
2023-03-13T17:57:49.816Z,98912.63
2023-03-13T18:00:22.215Z,98918.91
2023-03-13T18:02:49.824Z,98911.56
2023-03-13T18:05:17.113Z,98917.47
2023-03-13T18:07:44.593Z,98916.56
2023-03-13T18:10:20.807Z,98916.44
2023-03-13T18:12:48.298Z,98906.31
2023-03-13T18:15:15.478Z,98909.31
2023-03-13T18:17:42.582Z,98905.47
2023-03-13T18:20:21.923Z,98892.91
2023-03-13T18:22:48.920Z,98897.84
2023-03-13T18:25:15.895Z,98896.84
2023-03-13T18:27:42.755Z,98904.72
2023-03-13T18:30:19.178Z,98898.66
2023-03-13T18:32:46.732Z,98904.72
2023-03-13T18:35:14.100Z,98905.47
2023-03-13T18:37:46.518Z,98905.84
2023-03-13T18:40:24.566Z,98898.66
2023-03-13T18:42:52.052Z,98902.13
2023-03-13T18:45:24.005Z,98908.88
2023-03-13T18:47:51.329Z,98919.59
2023-03-13T18:50:28.588Z,98923.53
2023-03-13T18:53:00.554Z,98923.47
2023-03-13T18:55:30.305Z,98926.13
2023-03-13T18:58:00.367Z,98925.31
2023-03-13T19:00:30.516Z,98930.63
2023-03-13T19:02:57.608Z,98938.41
2023-03-13T19:05:24.963Z,98934.78
2023-03-13T19:07:52.048Z,98952.66
2023-03-13T19:10:26.149Z,98950.41
2023-03-13T19:12:55.122Z,98954.09
2023-03-13T19:15:24.627Z,98961.03
2023-03-13T19:17:52.255Z,98952.81
2023-03-13T19:20:22.050Z,98943.59
2023-03-13T19:22:49.019Z,98950.44
2023-03-13T19:25:19.870Z,98942.78
2023-03-13T19:27:50.123Z,98946.69
2023-03-13T19:30:25.953Z,98945.19
2023-03-13T19:32:53.429Z,98944.88
2023-03-13T19:35:22.312Z,98934.38
2023-03-13T19:37:50.092Z,98932.72
2023-03-13T19:40:26.084Z,98916.00
2023-03-13T19:42:56.049Z,98930.50
2023-03-13T19:45:23.138Z,98924.09
2023-03-13T19:47:50.488Z,98927.88
2023-03-13T19:50:23.319Z,98926.25
2023-03-13T19:52:50.378Z,98922.47
2023-03-13T19:55:17.356Z,98916.84
2023-03-13T19:57:44.501Z,98919.13
2023-03-13T20:00:19.765Z,98913.25
2023-03-13T20:02:47.047Z,98900.94
2023-03-13T20:05:14.134Z,98889.59
2023-03-13T20:07:41.990Z,98890.84
2023-03-13T20:10:09.438Z,98890.84
2023-03-13T20:12:36.505Z,98891.91
2023-03-13T20:15:03.904Z,98885.47
2023-03-13T20:17:33.536Z,98887.03
2023-03-13T20:20:00.324Z,98877.63
2023-03-13T20:22:27.289Z,98889.91
2023-03-13T20:24:56.053Z,98889.06
2023-03-13T20:27:22.875Z,98891.72
2023-03-13T20:29:50.231Z,98890.28
2023-03-13T20:32:17.119Z,98901.34
2023-03-13T20:34:44.008Z,98903.31
2023-03-13T20:37:10.869Z,98925.97
2023-03-13T20:39:38.557Z,98907.16
2023-03-13T20:42:08.381Z,98907.91
2023-03-13T20:44:35.317Z,98892.16
2023-03-13T20:47:02.120Z,98889.56
2023-03-13T20:49:29.030Z,98882.31
2023-03-13T20:51:55.997Z,98891.41
2023-03-13T20:54:22.963Z,98890.81
2023-03-13T20:56:49.782Z,98890.81
2023-03-13T20:59:16.676Z,98890.97
2023-03-13T21:01:44.219Z,98883.31
2023-03-13T21:04:11.172Z,98877.44
2023-03-13T21:06:38.143Z,98869.81
2023-03-13T21:09:07.943Z,98867.97
2023-03-13T21:11:34.960Z,98861.47
2023-03-13T21:14:04.750Z,98869.09
2023-03-13T21:16:31.745Z,98865.78
2023-03-13T21:18:59.231Z,98873.16
2023-03-13T21:21:29.718Z,98878.50
2023-03-13T21:23:56.652Z,98883.38
2023-03-13T21:26:23.473Z,98881.41
2023-03-13T21:28:51.231Z,98877.66
2023-03-13T21:31:19.291Z,98879.31
2023-03-13T21:33:47.884Z,98894.19
2023-03-13T21:36:18.695Z,98890.03
2023-03-13T21:38:46.076Z,98899.31
2023-03-13T21:41:16.807Z,98908.19
2023-03-13T21:43:43.940Z,98920.22
2023-03-13T21:46:13.003Z,98918.03
2023-03-13T21:48:41.769Z,98916.66
2023-03-13T21:51:09.160Z,98926.03
2023-03-13T21:53:37.105Z,98920.22
2023-03-13T21:56:05.011Z,98907.94
2023-03-13T21:58:34.140Z,98910.28
2023-03-13T22:01:01.232Z,98910.50
2023-03-13T22:03:28.283Z,98907.78
2023-03-13T22:05:55.581Z,98901.06
2023-03-13T22:08:22.655Z,98898.66
2023-03-13T22:10:51.063Z,98883.03
2023-03-13T22:13:17.959Z,98887.81
2023-03-13T22:15:46.718Z,98885.31
2023-03-13T22:18:14.725Z,98878.00
2023-03-13T22:20:42.290Z,98876.75
2023-03-13T22:23:10.676Z,98876.16
2023-03-13T22:25:42.529Z,98881.72
2023-03-13T22:28:11.047Z,98870.13
2023-03-13T22:30:39.200Z,98866.06
2023-03-13T22:33:07.024Z,98875.56
2023-03-13T22:35:35.661Z,98868.25
2023-03-13T22:38:03.840Z,98860.84
2023-03-13T22:40:30.773Z,98854.09
2023-03-13T22:42:57.884Z,98851.28
2023-03-13T22:45:25.768Z,98850.06
2023-03-13T22:47:52.532Z,98842.75
2023-03-13T22:50:21.085Z,98839.38
2023-03-13T22:52:47.977Z,98826.56
2023-03-13T22:55:14.902Z,98840.81
2023-03-13T22:57:41.876Z,98843.03
2023-03-13T23:00:10.338Z,98849.00
2023-03-13T23:02:37.215Z,98851.03
2023-03-13T23:05:04.573Z,98851.63
2023-03-13T23:07:32.655Z,98835.53
2023-03-13T23:09:59.892Z,98830.50
2023-03-13T23:12:27.104Z,98816.41
2023-03-13T23:14:54.721Z,98818.00
2023-03-13T23:17:21.682Z,98801.13
2023-03-13T23:19:48.915Z,98799.34
2023-03-13T23:22:18.202Z,98797.75
2023-03-13T23:24:45.315Z,98806.03
2023-03-13T23:27:12.091Z,98804.41
2023-03-13T23:29:39.409Z,98814.78
2023-03-13T23:32:06.821Z,98811.50
2023-03-13T23:34:36.109Z,98819.97
2023-03-13T23:37:03.526Z,98818.69
2023-03-13T23:39:31.020Z,98812.69
2023-03-13T23:41:58.045Z,98807.41
2023-03-13T23:44:24.740Z,98796.94
2023-03-13T23:46:51.881Z,98802.34
2023-03-13T23:49:18.666Z,98782.09
2023-03-13T23:51:45.603Z,98785.59
2023-03-13T23:54:12.762Z,98784.00
2023-03-13T23:56:39.728Z,98780.41
2023-03-13T23:59:06.699Z,98782.81
